PWSweather.com
Personal Weather Stations
Station Observations
MAGOO
Kiefer, OK 74041

Kiefer, OK 74041

Lat: 35.9417305, Lon: -96.03782654

Elevation: 699

Station Type: WMR100N

Latest ConditionsUpdated 8:55:00 PM CST Friday, Dec 19, 2014
Currently Today's Max Today's Min Today's Average
Temperature 37.7°F3.2°C 39.2°F4.0°C 34.7°F1.5°C 37.0°F2.8°C
Dew Point 27.2°F-2.7°C 34.4°F1.3°C 26.3°F-3.2°C 31.2°F-0.4°C
Winds 2.0 mph WNW3.2 kmh WNW 5.0 mph N8.0 kmh N - 3.1 mph 5.0 kmh
Wind Gusts 2.0 mph3.2 kmh 8.0 mph12.9 kmh - -
Humidity 90% 100% 86% 89%
Pressure 30.23 in1023.7 mb 30.26 in1024.7 mb 30.16 in1021.3 mb -
Hour Temp Dew Point Humidity Winds Wind Gusts Pressure Precip Precip Rate Daily Precip Total
08:55 PM 37.7°F3.2°C 27.2°F-2.7°C 90% 2.0 mph WNW3.2 kmh WNW 2.0 mph3.2 kmh 30.23 in1023.7 mb 0.00 in0.0 mm 0.00 in/hr0.0 mm/hr 0.00 in0.0 mm
08:50 PM 37.7°F3.2°C 27.2°F-2.7°C 90% 2.0 mph WNW3.2 kmh WNW 3.0 mph4.8 kmh 30.23 in1023.7 mb 0.00 in0.0 mm 0.00 in/hr0.0 mm/hr 0.00 in0.0 mm
08:45 PM 37.7°F3.2°C 27.0°F-2.8°C 90% 2.0 mph W3.2 kmh W 3.0 mph4.8 kmh 30.23 in1023.7 mb 0.00 in0.0 mm 0.00 in/hr0.0 mm/hr 0.00 in0.0 mm
08:40 PM 37.7°F3.2°C 26.8°F-2.9°C 89% 2.0 mph WNW3.2 kmh WNW 3.0 mph4.8 kmh 30.23 in1023.7 mb 0.00 in0.0 mm 0.00 in/hr0.0 mm/hr 0.00 in0.0 mm
08:35 PM 37.8°F3.2°C 26.9°F-2.8°C 89% 2.0 mph WNW3.2 kmh WNW 3.0 mph4.8 kmh 30.23 in1023.7 mb 0.00 in0.0 mm 0.00 in/hr0.0 mm/hr 0.00 in0.0 mm
08:30 PM 37.9°F3.3°C 26.9°F-2.8°C 89% 2.0 mph WNW3.2 kmh WNW 2.0 mph3.2 kmh 30.23 in1023.7 mb 0.00 in0.0 mm 0.00 in/hr0.0 mm/hr 0.00 in0.0 mm
08:25 PM 37.9°F3.3°C 26.9°F-2.8°C 89% 1.0 mph WNW1.6 kmh WNW 2.0 mph3.2 kmh 30.23 in1023.7 mb 0.00 in0.0 mm 0.00 in/hr0.0 mm/hr 0.00 in0.0 mm
08:20 PM 37.9°F3.3°C 26.9°F-2.8°C 89% 2.0 mph W3.2 kmh W 3.0 mph4.8 kmh 30.23 in1023.7 mb 0.00 in0.0 mm 0.00 in/hr0.0 mm/hr 0.00 in0.0 mm
08:15 PM 37.9°F3.3°C 26.9°F-2.8°C 89% 1.0 mph NW1.6 kmh NW 3.0 mph4.8 kmh 30.23 in1023.7 mb 0.00 in0.0 mm 0.00 in/hr0.0 mm/hr 0.00 in0.0 mm
08:10 PM 37.9°F3.3°C 26.9°F-2.8°C 89% 2.0 mph NW3.2 kmh NW 2.0 mph3.2 kmh 30.23 in1023.7 mb 0.00 in0.0 mm 0.00 in/hr0.0 mm/hr 0.00 in0.0 mm
08:05 PM 37.9°F3.3°C 26.9°F-2.8°C 89% 2.0 mph N3.2 kmh N 2.0 mph3.2 kmh 30.23 in1023.7 mb 0.00 in0.0 mm 0.00 in/hr0.0 mm/hr 0.00 in0.0 mm
08:00 PM 37.9°F3.3°C 26.9°F-2.8°C 89% Calm Calm 2.0 mph3.2 kmh 30.23 in1023.7 mb 0.00 in0.0 mm 0.00 in/hr0.0 mm/hr 0.00 in0.0 mm
07:55 PM 37.9°F3.3°C 26.9°F-2.8°C 89% Calm Calm -- 30.23 in1023.7 mb 0.00 in0.0 mm 0.00 in/hr0.0 mm/hr 0.00 in0.0 mm
07:50 PM 37.9°F3.3°C 26.9°F-2.8°C 89% Calm Calm 1.0 mph1.6 kmh 30.23 in1023.7 mb 0.00 in0.0 mm 0.00 in/hr0.0 mm/hr 0.00 in0.0 mm
07:45 PM 37.9°F3.3°C 26.9°F-2.8°C 89% Calm Calm -- 30.23 in1023.7 mb 0.00 in0.0 mm 0.00 in/hr0.0 mm/hr 0.00 in0.0 mm
07:40 PM 37.9°F3.3°C 26.9°F-2.8°C 89% Calm Calm 1.0 mph1.6 kmh 30.23 in1023.7 mb 0.00 in0.0 mm 0.00 in/hr0.0 mm/hr 0.00 in0.0 mm
07:35 PM 37.9°F3.3°C 26.9°F-2.8°C 89% Calm Calm -- 30.23 in1023.7 mb 0.00 in0.0 mm 0.00 in/hr0.0 mm/hr 0.00 in0.0 mm
07:30 PM 37.9°F3.3°C 26.9°F-2.8°C 89% Calm Calm -- 30.23 in1023.7 mb 0.00 in0.0 mm 0.00 in/hr0.0 mm/hr 0.00 in0.0 mm
07:25 PM 37.9°F3.3°C 26.9°F-2.8°C 89% Calm Calm -- 30.23 in1023.7 mb 0.00 in0.0 mm 0.00 in/hr0.0 mm/hr 0.00 in0.0 mm
07:20 PM 37.9°F3.3°C 26.9°F-2.8°C 89% Calm Calm 2.0 mph3.2 kmh 30.23 in1023.7 mb 0.00 in0.0 mm 0.00 in/hr0.0 mm/hr 0.00 in0.0 mm
07:15 PM 38.0°F3.3°C 27.0°F-2.8°C 89% 1.0 mph WNW1.6 kmh WNW 2.0 mph3.2 kmh 30.23 in1023.7 mb 0.00 in0.0 mm 0.00 in/hr0.0 mm/hr 0.00 in0.0 mm
07:10 PM 38.1°F3.4°C 27.1°F-2.7°C 89% 1.0 mph WNW1.6 kmh WNW 2.0 mph3.2 kmh 30.23 in1023.7 mb 0.00 in0.0 mm 0.00 in/hr0.0 mm/hr 0.00 in0.0 mm
07:05 PM 38.1°F3.4°C 27.1°F-2.7°C 89% 1.0 mph WNW1.6 kmh WNW 2.0 mph3.2 kmh 30.23 in1023.7 mb 0.00 in0.0 mm 0.00 in/hr0.0 mm/hr 0.00 in0.0 mm
07:00 PM 38.1°F3.4°C 27.1°F-2.7°C 89% Calm Calm -- 30.23 in1023.7 mb 0.00 in0.0 mm 0.00 in/hr0.0 mm/hr 0.00 in0.0 mm
06:55 PM 38.1°F3.4°C 27.0°F-2.8°C 89% Calm Calm 2.0 mph3.2 kmh 30.23 in1023.7 mb 0.00 in0.0 mm 0.00 in/hr0.0 mm/hr 0.00 in0.0 mm
06:50 PM 38.1°F3.4°C 26.7°F-2.9°C 88% Calm Calm 2.0 mph3.2 kmh 30.23 in1023.7 mb 0.00 in0.0 mm 0.00 in/hr0.0 mm/hr 0.00 in0.0 mm
06:45 PM 38.1°F3.4°C 26.7°F-2.9°C 88% Calm Calm -- 30.23 in1023.7 mb 0.00 in0.0 mm 0.00 in/hr0.0 mm/hr 0.00 in0.0 mm
06:40 PM 38.1°F3.4°C 26.7°F-2.9°C 88% 2.0 mph NNE3.2 kmh NNE 2.0 mph3.2 kmh 30.23 in1023.7 mb 0.00 in0.0 mm 0.00 in/hr0.0 mm/hr 0.00 in0.0 mm
06:35 PM 38.1°F3.4°C 26.7°F-2.9°C 88% 1.0 mph NE1.6 kmh NE 2.0 mph3.2 kmh 30.23 in1023.7 mb 0.00 in0.0 mm 0.00 in/hr0.0 mm/hr 0.00 in0.0 mm
06:30 PM 38.1°F3.4°C 26.7°F-2.9°C 88% 1.0 mph NE1.6 kmh NE 2.0 mph3.2 kmh 30.23 in1023.7 mb 0.00 in0.0 mm 0.00 in/hr0.0 mm/hr 0.00 in0.0 mm
06:25 PM 38.1°F3.4°C 26.7°F-2.9°C 88% Calm Calm 1.0 mph1.6 kmh 30.23 in1023.7 mb 0.00 in0.0 mm 0.00 in/hr0.0 mm/hr 0.00 in0.0 mm
06:20 PM 38.1°F3.4°C 26.7°F-2.9°C 88% 1.0 mph NNE1.6 kmh NNE 2.0 mph3.2 kmh 30.23 in1023.7 mb 0.00 in0.0 mm 0.00 in/hr0.0 mm/hr 0.00 in0.0 mm
06:15 PM 38.1°F3.4°C 26.7°F-2.9°C 88% 1.0 mph NE1.6 kmh NE 2.0 mph3.2 kmh 30.23 in1023.7 mb 0.00 in0.0 mm 0.00 in/hr0.0 mm/hr 0.00 in0.0 mm
06:10 PM 38.1°F3.4°C 26.5°F-3.1°C 88% Calm Calm -- 30.23 in1023.7 mb 0.00 in0.0 mm 0.00 in/hr0.0 mm/hr 0.00 in0.0 mm
06:05 PM 38.1°F3.4°C 26.3°F-3.2°C 87% Calm Calm -- 30.23 in1023.7 mb 0.00 in0.0 mm 0.00 in/hr0.0 mm/hr 0.00 in0.0 mm
06:00 PM 38.1°F3.4°C 26.3°F-3.2°C 87% Calm Calm -- 30.23 in1023.7 mb 0.00 in0.0 mm 0.00 in/hr0.0 mm/hr 0.00 in0.0 mm
05:55 PM 38.3°F3.5°C 26.4°F-3.1°C 87% Calm Calm -- 30.23 in1023.7 mb 0.00 in0.0 mm 0.00 in/hr0.0 mm/hr 0.00 in0.0 mm
05:50 PM 38.3°F3.5°C 26.4°F-3.1°C 87% Calm Calm -- 30.23 in1023.7 mb 0.00 in0.0 mm 0.00 in/hr0.0 mm/hr 0.00 in0.0 mm
05:45 PM 38.3°F3.5°C 26.4°F-3.1°C 87% 1.0 mph N1.6 kmh N 2.0 mph3.2 kmh 30.23 in1023.7 mb 0.00 in0.0 mm 0.00 in/hr0.0 mm/hr 0.00 in0.0 mm
05:40 PM 38.3°F3.5°C 26.4°F-3.1°C 87% 1.0 mph N1.6 kmh N 2.0 mph3.2 kmh 30.23 in1023.7 mb 0.00 in0.0 mm 0.00 in/hr0.0 mm/hr 0.00 in0.0 mm
05:35 PM 38.3°F3.5°C 26.4°F-3.1°C 87% Calm Calm 1.0 mph1.6 kmh 30.23 in1023.7 mb 0.00 in0.0 mm 0.00 in/hr0.0 mm/hr 0.00 in0.0 mm
05:30 PM 38.3°F3.5°C 26.4°F-3.1°C 87% 1.0 mph NE1.6 kmh NE 2.0 mph3.2 kmh 30.23 in1023.7 mb 0.00 in0.0 mm 0.00 in/hr0.0 mm/hr 0.00 in0.0 mm
05:25 PM 38.4°F3.6°C 26.5°F-3.1°C 87% 1.0 mph N1.6 kmh N 2.0 mph3.2 kmh 30.23 in1023.7 mb 0.00 in0.0 mm 0.00 in/hr0.0 mm/hr 0.00 in0.0 mm
05:20 PM 38.4°F3.6°C 26.6°F-3.0°C 87% 1.0 mph N1.6 kmh N 3.0 mph4.8 kmh 30.23 in1023.7 mb 0.00 in0.0 mm 0.00 in/hr0.0 mm/hr 0.00 in0.0 mm
05:15 PM 38.4°F3.6°C 26.6°F-3.0°C 87% 2.0 mph N3.2 kmh N 3.0 mph4.8 kmh 30.23 in1023.7 mb 0.00 in0.0 mm 0.00 in/hr0.0 mm/hr 0.00 in0.0 mm
05:10 PM 38.4°F3.6°C 26.6°F-3.0°C 87% 1.0 mph N1.6 kmh N 3.0 mph4.8 kmh 30.23 in1023.7 mb 0.00 in0.0 mm 0.00 in/hr0.0 mm/hr 0.00 in0.0 mm
05:05 PM 38.4°F3.6°C 26.6°F-3.0°C 87% Calm Calm -- 30.23 in1023.7 mb 0.00 in0.0 mm 0.00 in/hr0.0 mm/hr 0.00 in0.0 mm
05:00 PM 38.4°F3.6°C 26.6°F-3.0°C 87% 2.0 mph NNE3.2 kmh NNE 2.0 mph3.2 kmh 30.23 in1023.7 mb 0.00 in0.0 mm 0.00 in/hr0.0 mm/hr 0.00 in0.0 mm
04:55 PM 38.4°F3.6°C 26.6°F-3.0°C 87% 2.0 mph NNE3.2 kmh NNE 2.0 mph3.2 kmh 30.23 in1023.7 mb 0.00 in0.0 mm 0.00 in/hr0.0 mm/hr 0.00 in0.0 mm
04:50 PM 38.4°F3.6°C 26.6°F-3.0°C 87% 2.0 mph NNE3.2 kmh NNE 3.0 mph4.8 kmh 30.23 in1023.7 mb 0.00 in0.0 mm 0.00 in/hr0.0 mm/hr 0.00 in0.0 mm
04:45 PM 38.5°F3.6°C 26.7°F-2.9°C 87% 2.0 mph NNE3.2 kmh NNE 3.0 mph4.8 kmh 30.23 in1023.7 mb 0.00 in0.0 mm 0.00 in/hr0.0 mm/hr 0.00 in0.0 mm
04:40 PM 38.6°F3.7°C 26.8°F-2.9°C 87% 2.0 mph N3.2 kmh N 3.0 mph4.8 kmh 30.23 in1023.7 mb 0.00 in0.0 mm 0.00 in/hr0.0 mm/hr 0.00 in0.0 mm
04:35 PM 38.6°F3.7°C 26.8°F-2.9°C 87% 1.0 mph NNE1.6 kmh NNE 3.0 mph4.8 kmh 30.23 in1023.7 mb 0.00 in0.0 mm 0.00 in/hr0.0 mm/hr 0.00 in0.0 mm
04:30 PM 38.6°F3.7°C 26.8°F-2.9°C 87% 2.0 mph NNE3.2 kmh NNE 2.0 mph3.2 kmh 30.23 in1023.7 mb 0.00 in0.0 mm 0.00 in/hr0.0 mm/hr 0.00 in0.0 mm
04:25 PM 38.6°F3.7°C 26.8°F-2.9°C 87% 2.0 mph NNE3.2 kmh NNE 3.0 mph4.8 kmh 30.23 in1023.7 mb 0.00 in0.0 mm 0.00 in/hr0.0 mm/hr 0.00 in0.0 mm
04:20 PM 38.6°F3.7°C 26.4°F-3.1°C 86% 2.0 mph NNE3.2 kmh NNE 2.0 mph3.2 kmh 30.23 in1023.7 mb 0.00 in0.0 mm 0.00 in/hr0.0 mm/hr 0.00 in0.0 mm
04:15 PM 38.6°F3.7°C 26.3°F-3.2°C 86% 2.0 mph N3.2 kmh N 3.0 mph4.8 kmh 30.23 in1023.7 mb 0.00 in0.0 mm 0.00 in/hr0.0 mm/hr 0.00 in0.0 mm
04:10 PM 38.6°F3.7°C 26.3°F-3.2°C 86% 2.0 mph N3.2 kmh N 3.0 mph4.8 kmh 30.23 in1023.7 mb 0.00 in0.0 mm 0.00 in/hr0.0 mm/hr 0.00 in0.0 mm
04:05 PM 38.6°F3.7°C 26.3°F-3.2°C 86% 2.0 mph N3.2 kmh N 3.0 mph4.8 kmh 30.21 in1023.0 mb 0.00 in0.0 mm 0.00 in/hr0.0 mm/hr 0.00 in0.0 mm
04:00 PM 38.6°F3.7°C 26.3°F-3.2°C 86% 3.0 mph NNE4.8 kmh NNE 3.0 mph4.8 kmh 30.19 in1022.4 mb 0.00 in0.0 mm 0.00 in/hr0.0 mm/hr 0.00 in0.0 mm
03:55 PM 38.7°F3.7°C 26.4°F-3.1°C 86% 3.0 mph NNE4.8 kmh NNE 4.0 mph6.4 kmh 30.19 in1022.4 mb 0.00 in0.0 mm 0.00 in/hr0.0 mm/hr 0.00 in0.0 mm
03:50 PM 38.8°F3.8°C 26.5°F-3.1°C 86% 1.0 mph NNE1.6 kmh NNE 2.0 mph3.2 kmh 30.19 in1022.4 mb 0.00 in0.0 mm 0.00 in/hr0.0 mm/hr 0.00 in0.0 mm
03:45 PM 38.8°F3.8°C 26.4°F-3.1°C 86% 2.0 mph NE3.2 kmh NE 3.0 mph4.8 kmh 30.19 in1022.4 mb 0.00 in0.0 mm 0.00 in/hr0.0 mm/hr 0.00 in0.0 mm
03:40 PM 38.9°F3.8°C 26.5°F-3.1°C 86% 3.0 mph NNW4.8 kmh NNW 3.0 mph4.8 kmh 30.19 in1022.4 mb 0.00 in0.0 mm 0.00 in/hr0.0 mm/hr 0.00 in0.0 mm
03:35 PM 39.0°F3.9°C 26.6°F-3.0°C 86% 3.0 mph 4.8 kmh 3.0 mph4.8 kmh 30.19 in1022.4 mb 0.00 in0.0 mm 0.00 in/hr0.0 mm/hr 0.00 in0.0 mm
03:30 PM 39.0°F3.9°C 26.6°F-3.0°C 86% 2.0 mph N3.2 kmh N 3.0 mph4.8 kmh 30.19 in1022.4 mb 0.00 in0.0 mm 0.00 in/hr0.0 mm/hr 0.00 in0.0 mm
03:25 PM 39.0°F3.9°C 26.6°F-3.0°C 86% - N16091.8 kmh N -- 30.19 in1022.4 mb 0.00 in0.0 mm 0.00 in/hr0.0 mm/hr 0.00 in0.0 mm
03:20 PM 39.0°F3.9°C 26.6°F-3.0°C 86% 3.0 mph N4.8 kmh N 3.0 mph4.8 kmh 30.19 in1022.4 mb 0.00 in0.0 mm 0.00 in/hr0.0 mm/hr 0.00 in0.0 mm
03:15 PM 39.0°F3.9°C 26.6°F-3.0°C 86% 3.0 mph NNW4.8 kmh NNW 3.0 mph4.8 kmh 30.19 in1022.4 mb 0.00 in0.0 mm 0.00 in/hr0.0 mm/hr 0.00 in0.0 mm
03:10 PM 39.1°F3.9°C 26.8°F-2.9°C 86% - N16091.8 kmh N -- 30.19 in1022.4 mb 0.00 in0.0 mm 0.00 in/hr0.0 mm/hr 0.00 in0.0 mm
03:05 PM 39.2°F4.0°C 27.3°F-2.6°C 87% - N16091.8 kmh N -- 30.19 in1022.4 mb 0.00 in0.0 mm 0.00 in/hr0.0 mm/hr 0.00 in0.0 mm
03:00 PM 39.2°F4.0°C 27.3°F-2.6°C 87% 2.0 mph NNW3.2 kmh NNW 3.0 mph4.8 kmh 30.19 in1022.4 mb 0.00 in0.0 mm 0.00 in/hr0.0 mm/hr 0.00 in0.0 mm
02:55 PM 39.2°F4.0°C 27.3°F-2.6°C 87% 2.0 mph NNW3.2 kmh NNW 4.0 mph6.4 kmh 30.19 in1022.4 mb 0.00 in0.0 mm 0.00 in/hr0.0 mm/hr 0.00 in0.0 mm
02:50 PM 39.2°F4.0°C 27.4°F-2.6°C 87% 3.0 mph NNW4.8 kmh NNW 4.0 mph6.4 kmh 30.18 in1022.0 mb 0.00 in0.0 mm 0.00 in/hr0.0 mm/hr 0.00 in0.0 mm
02:45 PM 39.2°F4.0°C 27.7°F-2.4°C 88% 3.0 mph NNW4.8 kmh NNW 3.0 mph4.8 kmh 30.16 in1021.3 mb 0.00 in0.0 mm 0.00 in/hr0.0 mm/hr 0.00 in0.0 mm
02:40 PM 39.2°F4.0°C 27.7°F-2.4°C 88% - N16091.8 kmh N -- 30.16 in1021.3 mb 0.00 in0.0 mm 0.00 in/hr0.0 mm/hr 0.00 in0.0 mm
02:35 PM 39.1°F3.9°C 27.7°F-2.4°C 88% 3.0 mph NNE4.8 kmh NNE 5.0 mph8.0 kmh 30.17 in1021.7 mb 0.00 in0.0 mm 0.00 in/hr0.0 mm/hr 0.00 in0.0 mm
02:30 PM 39.2°F4.0°C 28.1°F-2.2°C 89% - N16091.8 kmh N -- 30.19 in1022.4 mb 0.00 in0.0 mm 0.00 in/hr0.0 mm/hr 0.00 in0.0 mm
02:25 PM 39.2°F4.0°C 28.3°F-2.1°C 90% 3.0 mph NNE4.8 kmh NNE 4.0 mph6.4 kmh 30.19 in1022.4 mb 0.00 in0.0 mm 0.00 in/hr0.0 mm/hr 0.00 in0.0 mm
02:20 PM 39.2°F4.0°C 28.6°F-1.9°C 90% 3.0 mph NW4.8 kmh NW 3.0 mph4.8 kmh 30.19 in1022.4 mb 0.00 in0.0 mm 0.00 in/hr0.0 mm/hr 0.00 in0.0 mm
02:15 PM 39.2°F4.0°C 28.6°F-1.9°C 90% 3.0 mph N4.8 kmh N 4.0 mph6.4 kmh 30.19 in1022.4 mb 0.00 in0.0 mm 0.00 in/hr0.0 mm/hr 0.00 in0.0 mm
02:10 PM 39.2°F4.0°C 29.0°F-1.7°C 91% 4.0 mph NNW6.4 kmh NNW 4.0 mph6.4 kmh 30.19 in1022.4 mb 0.00 in0.0 mm 0.00 in/hr0.0 mm/hr 0.00 in0.0 mm
02:05 PM 39.0°F3.9°C 28.8°F-1.8°C 91% 4.0 mph NNE6.4 kmh NNE 4.0 mph6.4 kmh 30.18 in1022.0 mb 0.00 in0.0 mm 0.00 in/hr0.0 mm/hr 0.00 in0.0 mm
02:00 PM 39.0°F3.9°C 28.8°F-1.8°C 91% - N16091.8 kmh N -- 30.16 in1021.3 mb 0.00 in0.0 mm 0.00 in/hr0.0 mm/hr 0.00 in0.0 mm
01:55 PM 39.0°F3.9°C 29.2°F-1.6°C 92% 3.0 mph NNW4.8 kmh NNW 3.0 mph4.8 kmh 30.16 in1021.3 mb 0.00 in0.0 mm 0.00 in/hr0.0 mm/hr 0.00 in0.0 mm
01:50 PM 38.8°F3.8°C 29.1°F-1.6°C 92% - N16091.8 kmh N -- 30.17 in1021.7 mb 0.00 in0.0 mm 0.00 in/hr0.0 mm/hr 0.00 in0.0 mm
01:45 PM 38.6°F3.7°C 28.9°F-1.7°C 92% 4.0 mph N6.4 kmh N 4.0 mph6.4 kmh 30.19 in1022.4 mb 0.00 in0.0 mm 0.00 in/hr0.0 mm/hr 0.00 in0.0 mm
01:40 PM 38.4°F3.6°C 28.7°F-1.8°C 92% 3.0 mph NNW4.8 kmh NNW 3.0 mph4.8 kmh 30.20 in1022.7 mb 0.00 in0.0 mm 0.00 in/hr0.0 mm/hr 0.00 in0.0 mm
01:35 PM 38.4°F3.6°C 28.7°F-1.8°C 92% 4.0 mph N6.4 kmh N 6.0 mph9.7 kmh 30.20 in1022.7 mb 0.00 in0.0 mm 0.00 in/hr0.0 mm/hr 0.00 in0.0 mm
01:30 PM 38.4°F3.6°C 29.1°F-1.6°C 93% - N16091.8 kmh N -- 30.20 in1022.7 mb 0.00 in0.0 mm 0.00 in/hr0.0 mm/hr 0.00 in0.0 mm
01:25 PM 38.4°F3.6°C 29.1°F-1.6°C 93% 5.0 mph NNW8.0 kmh NNW 6.0 mph9.7 kmh 30.20 in1022.7 mb 0.00 in0.0 mm 0.00 in/hr0.0 mm/hr 0.00 in0.0 mm
01:20 PM 38.4°F3.6°C 29.5°F-1.4°C 94% 4.0 mph NNW6.4 kmh NNW 4.0 mph6.4 kmh 30.20 in1022.7 mb 0.00 in0.0 mm 0.00 in/hr0.0 mm/hr 0.00 in0.0 mm
01:15 PM 38.4°F3.6°C 29.6°F-1.3°C 94% 5.0 mph NNE8.0 kmh NNE 5.0 mph8.0 kmh 30.20 in1022.7 mb 0.00 in0.0 mm 0.00 in/hr0.0 mm/hr 0.00 in0.0 mm
01:10 PM 38.3°F3.5°C 29.8°F-1.2°C 95% - N16091.8 kmh N -- 30.20 in1022.7 mb 0.00 in0.0 mm 0.00 in/hr0.0 mm/hr 0.00 in0.0 mm
01:05 PM 38.3°F3.5°C 29.9°F-1.2°C 95% 4.0 mph NNW6.4 kmh NNW 6.0 mph9.7 kmh 30.20 in1022.7 mb 0.00 in0.0 mm 0.00 in/hr0.0 mm/hr 0.00 in0.0 mm
01:00 PM 38.4°F3.6°C 30.4°F-0.9°C 96% 4.0 mph 6.4 kmh 5.0 mph8.0 kmh 30.20 in1022.7 mb 0.00 in0.0 mm 0.00 in/hr0.0 mm/hr 0.00 in0.0 mm
12:55 PM 38.5°F3.6°C 30.8°F-0.7°C 97% 4.0 mph NNW6.4 kmh NNW 4.0 mph6.4 kmh 30.19 in1022.4 mb 0.00 in0.0 mm 0.00 in/hr0.0 mm/hr 0.00 in0.0 mm
12:50 PM 38.6°F3.7°C 31.2°F-0.4°C 98% 4.0 mph 6.4 kmh 4.0 mph6.4 kmh 30.19 in1022.4 mb 0.00 in0.0 mm 0.00 in/hr0.0 mm/hr 0.00 in0.0 mm
12:45 PM 38.4°F3.6°C 31.1°F-0.5°C 98% - N16091.8 kmh N -- 30.20 in1022.7 mb 0.00 in0.0 mm 0.00 in/hr0.0 mm/hr 0.00 in0.0 mm
12:40 PM 38.4°F3.6°C 31.3°F-0.4°C 99% 4.0 mph NNE6.4 kmh NNE 6.0 mph9.7 kmh 30.20 in1022.7 mb 0.00 in0.0 mm 0.00 in/hr0.0 mm/hr 0.00 in0.0 mm
12:35 PM 38.3°F3.5°C 31.5°F-0.3°C 100% 4.0 mph NNW6.4 kmh NNW 5.0 mph8.0 kmh 30.20 in1022.7 mb 0.00 in0.0 mm 0.00 in/hr0.0 mm/hr 0.00 in0.0 mm
12:30 PM 38.1°F3.4°C 31.7°F-0.2°C 100% 4.0 mph N6.4 kmh N 4.0 mph6.4 kmh 30.23 in1023.7 mb 0.00 in0.0 mm 0.00 in/hr0.0 mm/hr 0.00 in0.0 mm
12:25 PM 38.2°F3.4°C 32.0°F0.0°C - 4.0 mph NNE6.4 kmh NNE 4.0 mph6.4 kmh 30.23 in1023.7 mb 0.00 in0.0 mm 0.00 in/hr0.0 mm/hr 0.00 in0.0 mm
12:20 PM 38.3°F3.5°C 32.6°F0.3°C - 4.0 mph NNW6.4 kmh NNW 4.0 mph6.4 kmh 30.23 in1023.7 mb 0.00 in0.0 mm 0.00 in/hr0.0 mm/hr 0.00 in0.0 mm
12:15 PM 38.6°F3.7°C 33.3°F0.7°C - 4.0 mph N6.4 kmh N 4.0 mph6.4 kmh 30.23 in1023.7 mb 0.00 in0.0 mm 0.00 in/hr0.0 mm/hr 0.00 in0.0 mm
12:10 PM 38.5°F3.6°C 33.4°F0.8°C - 5.0 mph NNE8.0 kmh NNE 6.0 mph9.7 kmh 30.23 in1023.7 mb 0.00 in0.0 mm 0.00 in/hr0.0 mm/hr 0.00 in0.0 mm
12:05 PM 38.2°F3.4°C 33.3°F0.7°C - - N16091.8 kmh N -- 30.23 in1023.7 mb 0.00 in0.0 mm 0.00 in/hr0.0 mm/hr 0.00 in0.0 mm
12:00 PM 38.0°F3.3°C 33.3°F0.7°C - 4.0 mph 6.4 kmh 4.0 mph6.4 kmh 30.23 in1023.7 mb 0.00 in0.0 mm 0.00 in/hr0.0 mm/hr 0.00 in0.0 mm
11:55 AM 37.9°F3.3°C 33.4°F0.8°C - 5.0 mph 8.0 kmh 6.0 mph9.7 kmh 30.23 in1023.7 mb 0.00 in0.0 mm 0.00 in/hr0.0 mm/hr 0.00 in0.0 mm
11:50 AM 37.8°F3.2°C 33.5°F0.8°C - 4.0 mph N6.4 kmh N 6.0 mph9.7 kmh 30.23 in1023.7 mb 0.00 in0.0 mm 0.00 in/hr0.0 mm/hr 0.00 in0.0 mm
11:45 AM 37.6°F3.1°C 33.7°F0.9°C - 4.0 mph N6.4 kmh N 4.0 mph6.4 kmh 30.23 in1023.7 mb 0.00 in0.0 mm 0.00 in/hr0.0 mm/hr 0.00 in0.0 mm
11:40 AM 37.5°F3.1°C 33.8°F1.0°C - 4.0 mph N6.4 kmh N 4.0 mph6.4 kmh 30.23 in1023.7 mb 0.00 in0.0 mm 0.00 in/hr0.0 mm/hr 0.00 in0.0 mm
11:35 AM 37.5°F3.1°C 33.9°F1.1°C - - N16091.8 kmh N -- 30.23 in1023.7 mb 0.00 in0.0 mm 0.00 in/hr0.0 mm/hr 0.00 in0.0 mm
11:30 AM 37.2°F2.9°C 33.8°F1.0°C - 4.0 mph NNW6.4 kmh NNW 4.0 mph6.4 kmh 30.26 in1024.7 mb 0.00 in0.0 mm 0.00 in/hr0.0 mm/hr 0.00 in0.0 mm
11:25 AM 37.2°F2.9°C 34.0°F1.1°C - 5.0 mph N8.0 kmh N 6.0 mph9.7 kmh 30.26 in1024.7 mb 0.00 in0.0 mm 0.00 in/hr0.0 mm/hr 0.00 in0.0 mm
11:20 AM 37.1°F2.8°C 33.9°F1.1°C - 4.0 mph NNW6.4 kmh NNW 4.0 mph6.4 kmh 30.26 in1024.7 mb 0.00 in0.0 mm 0.00 in/hr0.0 mm/hr 0.00 in0.0 mm
11:15 AM 36.8°F2.7°C 33.9°F1.1°C - 4.0 mph 6.4 kmh 4.0 mph6.4 kmh 30.26 in1024.7 mb 0.00 in0.0 mm 0.00 in/hr0.0 mm/hr 0.00 in0.0 mm
11:10 AM 36.6°F2.6°C 33.7°F0.9°C - 4.0 mph NNW6.4 kmh NNW 5.0 mph8.0 kmh 30.26 in1024.7 mb 0.00 in0.0 mm 0.00 in/hr0.0 mm/hr 0.00 in0.0 mm
11:05 AM 36.3°F2.4°C 33.7°F0.9°C - 4.0 mph N6.4 kmh N 5.0 mph8.0 kmh 30.26 in1024.7 mb 0.00 in0.0 mm 0.00 in/hr0.0 mm/hr 0.00 in0.0 mm
11:00 AM 36.3°F2.4°C 33.7°F0.9°C - 3.0 mph N4.8 kmh N 5.0 mph8.0 kmh 30.26 in1024.7 mb 0.00 in0.0 mm 0.00 in/hr0.0 mm/hr 0.00 in0.0 mm
10:55 AM 36.3°F2.4°C 34.0°F1.1°C - 4.0 mph NNW6.4 kmh NNW 4.0 mph6.4 kmh 30.26 in1024.7 mb 0.00 in0.0 mm 0.00 in/hr0.0 mm/hr 0.00 in0.0 mm
10:50 AM 36.2°F2.3°C 34.0°F1.1°C - 3.0 mph WNW4.8 kmh WNW 3.0 mph4.8 kmh 30.26 in1024.7 mb 0.00 in0.0 mm 0.00 in/hr0.0 mm/hr 0.00 in0.0 mm
10:45 AM 36.1°F2.3°C 33.9°F1.1°C - 3.0 mph NNW4.8 kmh NNW 4.0 mph6.4 kmh 30.26 in1024.7 mb 0.00 in0.0 mm 0.00 in/hr0.0 mm/hr 0.00 in0.0 mm
10:40 AM 36.1°F2.3°C 34.2°F1.2°C - 3.0 mph NNE4.8 kmh NNE 5.0 mph8.0 kmh 30.26 in1024.7 mb 0.00 in0.0 mm 0.00 in/hr0.0 mm/hr 0.00 in0.0 mm
10:35 AM 35.9°F2.2°C 34.0°F1.1°C - 3.0 mph 4.8 kmh 4.0 mph6.4 kmh 30.26 in1024.7 mb 0.00 in0.0 mm 0.00 in/hr0.0 mm/hr 0.00 in0.0 mm
10:30 AM 35.7°F2.1°C 34.0°F1.1°C - - N16091.8 kmh N -- 30.26 in1024.7 mb 0.00 in0.0 mm 0.00 in/hr0.0 mm/hr 0.00 in0.0 mm
10:25 AM 35.7°F2.1°C 34.1°F1.2°C - 3.0 mph NNW4.8 kmh NNW 4.0 mph6.4 kmh 30.26 in1024.7 mb 0.00 in0.0 mm 0.00 in/hr0.0 mm/hr 0.00 in0.0 mm
10:20 AM 35.6°F2.0°C 34.0°F1.1°C - - N16091.8 kmh N -- 30.25 in1024.4 mb 0.00 in0.0 mm 0.00 in/hr0.0 mm/hr 0.00 in0.0 mm
10:15 AM 35.6°F2.0°C 34.0°F1.1°C - 4.0 mph N6.4 kmh N 5.0 mph8.0 kmh 30.23 in1023.7 mb 0.00 in0.0 mm 0.00 in/hr0.0 mm/hr 0.00 in0.0 mm
10:10 AM 35.5°F1.9°C 33.9°F1.1°C - 4.0 mph 6.4 kmh 4.0 mph6.4 kmh 30.23 in1023.7 mb 0.00 in0.0 mm 0.00 in/hr0.0 mm/hr 0.00 in0.0 mm
10:05 AM 35.4°F1.9°C 34.1°F1.2°C - 4.0 mph N6.4 kmh N 7.0 mph11.3 kmh 30.23 in1023.7 mb 0.00 in0.0 mm 0.00 in/hr0.0 mm/hr 0.00 in0.0 mm
10:00 AM 35.4°F1.9°C 34.1°F1.2°C - 4.0 mph NNW6.4 kmh NNW 4.0 mph6.4 kmh 30.23 in1023.7 mb 0.00 in0.0 mm 0.00 in/hr0.0 mm/hr 0.00 in0.0 mm
09:55 AM 35.4°F1.9°C 34.1°F1.2°C - 4.0 mph NNW6.4 kmh NNW 6.0 mph9.7 kmh 30.23 in1023.7 mb 0.00 in0.0 mm 0.00 in/hr0.0 mm/hr 0.00 in0.0 mm
09:50 AM 35.4°F1.9°C 34.3°F1.3°C - 3.0 mph NNW4.8 kmh NNW 3.0 mph4.8 kmh 30.23 in1023.7 mb 0.00 in0.0 mm 0.00 in/hr0.0 mm/hr 0.00 in0.0 mm
09:45 AM 35.4°F1.9°C 34.4°F1.3°C - 3.0 mph N4.8 kmh N 6.0 mph9.7 kmh 30.23 in1023.7 mb 0.00 in0.0 mm 0.00 in/hr0.0 mm/hr 0.00 in0.0 mm
09:40 AM 35.4°F1.9°C 34.4°F1.3°C - 4.0 mph 6.4 kmh 4.0 mph6.4 kmh 30.23 in1023.7 mb 0.00 in0.0 mm 0.00 in/hr0.0 mm/hr 0.00 in0.0 mm
09:35 AM 35.4°F1.9°C 34.4°F1.3°C - 5.0 mph NNW8.0 kmh NNW 6.0 mph9.7 kmh 30.24 in1024.0 mb 0.00 in0.0 mm 0.00 in/hr0.0 mm/hr 0.00 in0.0 mm
09:30 AM 35.3°F1.8°C 34.3°F1.3°C - - N16091.8 kmh N -- 30.26 in1024.7 mb 0.00 in0.0 mm 0.00 in/hr0.0 mm/hr 0.00 in0.0 mm
09:25 AM 35.2°F1.8°C 34.2°F1.2°C - 4.0 mph NNW6.4 kmh NNW 6.0 mph9.7 kmh 30.26 in1024.7 mb 0.00 in0.0 mm 0.00 in/hr0.0 mm/hr 0.00 in0.0 mm
09:20 AM 35.2°F1.8°C 34.2°F1.2°C - - N16091.8 kmh N -- 30.25 in1024.4 mb 0.00 in0.0 mm 0.00 in/hr0.0 mm/hr 0.00 in0.0 mm
09:15 AM 35.1°F1.7°C 34.1°F1.2°C - 5.0 mph N8.0 kmh N 6.0 mph9.7 kmh 30.23 in1023.7 mb 0.00 in0.0 mm 0.00 in/hr0.0 mm/hr 0.00 in0.0 mm
09:10 AM 35.0°F1.7°C 34.0°F1.1°C - 5.0 mph NNW8.0 kmh NNW 6.0 mph9.7 kmh 30.23 in1023.7 mb 0.00 in0.0 mm 0.00 in/hr0.0 mm/hr 0.00 in0.0 mm
09:05 AM 35.0°F1.7°C 34.0°F1.1°C - 3.0 mph N4.8 kmh N 6.0 mph9.7 kmh 30.23 in1023.7 mb 0.00 in0.0 mm 0.00 in/hr0.0 mm/hr 0.00 in0.0 mm
09:00 AM 35.0°F1.7°C 34.0°F1.1°C - 4.0 mph N6.4 kmh N 4.0 mph6.4 kmh 30.23 in1023.7 mb 0.00 in0.0 mm 0.00 in/hr0.0 mm/hr 0.00 in0.0 mm
08:55 AM 34.8°F1.6°C 33.8°F1.0°C - 5.0 mph N8.0 kmh N 6.0 mph9.7 kmh 30.23 in1023.7 mb 0.00 in0.0 mm 0.00 in/hr0.0 mm/hr 0.00 in0.0 mm
08:50 AM 34.8°F1.6°C 33.8°F1.0°C - 5.0 mph NNE8.0 kmh NNE 5.0 mph8.0 kmh 30.23 in1023.7 mb 0.00 in0.0 mm 0.00 in/hr0.0 mm/hr 0.00 in0.0 mm
08:45 AM 34.8°F1.6°C 33.8°F1.0°C - 5.0 mph N8.0 kmh N 6.0 mph9.7 kmh 30.23 in1023.7 mb 0.00 in0.0 mm 0.00 in/hr0.0 mm/hr 0.00 in0.0 mm
08:40 AM 34.8°F1.6°C 33.8°F1.0°C - - N16091.8 kmh N -- 30.23 in1023.7 mb 0.00 in0.0 mm 0.00 in/hr0.0 mm/hr 0.00 in0.0 mm
08:35 AM 34.8°F1.6°C 33.8°F1.0°C - 5.0 mph 8.0 kmh 5.0 mph8.0 kmh 30.23 in1023.7 mb 0.00 in0.0 mm 0.00 in/hr0.0 mm/hr 0.00 in0.0 mm
08:30 AM 34.8°F1.6°C 33.8°F1.0°C - 5.0 mph NNW8.0 kmh NNW 5.0 mph8.0 kmh 30.23 in1023.7 mb 0.00 in0.0 mm 0.00 in/hr0.0 mm/hr 0.00 in0.0 mm
08:25 AM 34.8°F1.6°C 33.8°F1.0°C - - N16091.8 kmh N -- 30.23 in1023.7 mb 0.00 in0.0 mm 0.00 in/hr0.0 mm/hr 0.00 in0.0 mm
08:20 AM 34.7°F1.5°C 33.7°F0.9°C - 4.0 mph N6.4 kmh N 5.0 mph8.0 kmh 30.23 in1023.7 mb 0.00 in0.0 mm 0.00 in/hr0.0 mm/hr 0.00 in0.0 mm
08:15 AM 34.7°F1.5°C 33.7°F0.9°C - 4.0 mph NNW6.4 kmh NNW 4.0 mph6.4 kmh 30.23 in1023.7 mb 0.00 in0.0 mm 0.00 in/hr0.0 mm/hr 0.00 in0.0 mm
08:10 AM 34.7°F1.5°C 33.7°F0.9°C - 4.0 mph N6.4 kmh N 6.0 mph9.7 kmh 30.23 in1023.7 mb 0.00 in0.0 mm 0.00 in/hr0.0 mm/hr 0.00 in0.0 mm
08:05 AM 34.8°F1.6°C 33.8°F1.0°C - 4.0 mph NNW6.4 kmh NNW 5.0 mph8.0 kmh 30.23 in1023.7 mb 0.00 in0.0 mm 0.00 in/hr0.0 mm/hr 0.00 in0.0 mm
08:00 AM 34.7°F1.5°C 33.7°F0.9°C - 3.0 mph NNW4.8 kmh NNW 4.0 mph6.4 kmh 30.23 in1023.7 mb 0.00 in0.0 mm 0.00 in/hr0.0 mm/hr 0.00 in0.0 mm
07:55 AM 34.7°F1.5°C 33.7°F0.9°C - - N16091.8 kmh N -- 30.23 in1023.7 mb 0.00 in0.0 mm 0.00 in/hr0.0 mm/hr 0.00 in0.0 mm
07:50 AM 34.7°F1.5°C 33.5°F0.8°C - 4.0 mph 6.4 kmh 4.0 mph6.4 kmh 30.23 in1023.7 mb 0.00 in0.0 mm 0.00 in/hr0.0 mm/hr 0.00 in0.0 mm
07:45 AM 34.7°F1.5°C 33.4°F0.8°C - 4.0 mph N6.4 kmh N 4.0 mph6.4 kmh 30.23 in1023.7 mb 0.00 in0.0 mm 0.00 in/hr0.0 mm/hr 0.00 in0.0 mm
07:40 AM 34.8°F1.6°C 33.5°F0.8°C - 4.0 mph N6.4 kmh N 5.0 mph8.0 kmh 30.23 in1023.7 mb 0.00 in0.0 mm 0.00 in/hr0.0 mm/hr 0.00 in0.0 mm
07:35 AM 34.8°F1.6°C 33.5°F0.8°C - 4.0 mph NNW6.4 kmh NNW 6.0 mph9.7 kmh 30.23 in1023.7 mb 0.00 in0.0 mm 0.00 in/hr0.0 mm/hr 0.00 in0.0 mm
07:30 AM 34.8°F1.6°C 33.5°F0.8°C - 4.0 mph N6.4 kmh N 6.0 mph9.7 kmh 30.23 in1023.7 mb 0.00 in0.0 mm 0.00 in/hr0.0 mm/hr 0.00 in0.0 mm
07:25 AM 34.8°F1.6°C 33.5°F0.8°C - 4.0 mph N6.4 kmh N 6.0 mph9.7 kmh 30.23 in1023.7 mb 0.00 in0.0 mm 0.00 in/hr0.0 mm/hr 0.00 in0.0 mm
07:20 AM 34.8°F1.6°C 33.5°F0.8°C - 4.0 mph NNW6.4 kmh NNW 6.0 mph9.7 kmh 30.23 in1023.7 mb 0.00 in0.0 mm 0.00 in/hr0.0 mm/hr 0.00 in0.0 mm
07:15 AM 34.8°F1.6°C 33.5°F0.8°C - 3.0 mph NNW4.8 kmh NNW 4.0 mph6.4 kmh 30.23 in1023.7 mb 0.00 in0.0 mm 0.00 in/hr0.0 mm/hr 0.00 in0.0 mm
07:10 AM 34.8°F1.6°C 33.5°F0.8°C - 4.0 mph NNW6.4 kmh NNW 6.0 mph9.7 kmh 30.23 in1023.7 mb 0.00 in0.0 mm 0.00 in/hr0.0 mm/hr 0.00 in0.0 mm
07:05 AM 34.8°F1.6°C 33.5°F0.8°C - 3.0 mph N4.8 kmh N 4.0 mph6.4 kmh 30.23 in1023.7 mb 0.00 in0.0 mm 0.00 in/hr0.0 mm/hr 0.00 in0.0 mm
07:00 AM 34.8°F1.6°C 33.5°F0.8°C - 4.0 mph N6.4 kmh N 6.0 mph9.7 kmh 30.23 in1023.7 mb 0.00 in0.0 mm 0.00 in/hr0.0 mm/hr 0.00 in0.0 mm
06:55 AM 35.0°F1.7°C 33.7°F0.9°C - 4.0 mph N6.4 kmh N 6.0 mph9.7 kmh 30.23 in1023.7 mb 0.00 in0.0 mm 0.00 in/hr0.0 mm/hr 0.00 in0.0 mm
06:50 AM 35.0°F1.7°C 33.7°F0.9°C - 4.0 mph N6.4 kmh N 6.0 mph9.7 kmh 30.22 in1023.4 mb 0.00 in0.0 mm 0.00 in/hr0.0 mm/hr 0.00 in0.0 mm
06:45 AM 35.0°F1.7°C 33.7°F0.9°C - 3.0 mph N4.8 kmh N 4.0 mph6.4 kmh 30.20 in1022.7 mb 0.00 in0.0 mm 0.00 in/hr0.0 mm/hr 0.00 in0.0 mm
06:40 AM 35.0°F1.7°C 33.7°F0.9°C - 4.0 mph N6.4 kmh N 6.0 mph9.7 kmh 30.20 in1022.7 mb 0.00 in0.0 mm 0.00 in/hr0.0 mm/hr 0.00 in0.0 mm
06:35 AM 35.0°F1.7°C 33.7°F0.9°C - 5.0 mph N8.0 kmh N 6.0 mph9.7 kmh 30.20 in1022.7 mb 0.00 in0.0 mm 0.00 in/hr0.0 mm/hr 0.00 in0.0 mm
06:30 AM 35.0°F1.7°C 33.7°F0.9°C - 4.0 mph N6.4 kmh N 7.0 mph11.3 kmh 30.20 in1022.7 mb 0.00 in0.0 mm 0.00 in/hr0.0 mm/hr 0.00 in0.0 mm
06:25 AM 35.0°F1.7°C 33.7°F0.9°C - 3.0 mph N4.8 kmh N 4.0 mph6.4 kmh 30.20 in1022.7 mb 0.00 in0.0 mm 0.00 in/hr0.0 mm/hr 0.00 in0.0 mm
06:20 AM 35.0°F1.7°C 33.7°F0.9°C - 4.0 mph N6.4 kmh N 8.0 mph12.9 kmh 30.20 in1022.7 mb 0.00 in0.0 mm 0.00 in/hr0.0 mm/hr 0.00 in0.0 mm
06:15 AM 35.0°F1.7°C 33.7°F0.9°C - 5.0 mph N8.0 kmh N 6.0 mph9.7 kmh 30.20 in1022.7 mb 0.00 in0.0 mm 0.00 in/hr0.0 mm/hr 0.00 in0.0 mm
06:10 AM 35.0°F1.7°C 33.6°F0.9°C - 4.0 mph N6.4 kmh N 5.0 mph8.0 kmh 30.20 in1022.7 mb 0.00 in0.0 mm 0.00 in/hr0.0 mm/hr 0.00 in0.0 mm
06:05 AM 35.0°F1.7°C 33.4°F0.8°C - 4.0 mph N6.4 kmh N 6.0 mph9.7 kmh 30.20 in1022.7 mb 0.00 in0.0 mm 0.00 in/hr0.0 mm/hr 0.00 in0.0 mm
06:00 AM 35.0°F1.7°C 33.4°F0.8°C - 3.0 mph N4.8 kmh N 6.0 mph9.7 kmh 30.20 in1022.7 mb 0.00 in0.0 mm 0.00 in/hr0.0 mm/hr 0.00 in0.0 mm
05:55 AM 35.0°F1.7°C 33.5°F0.8°C - 4.0 mph N6.4 kmh N 6.0 mph9.7 kmh 30.20 in1022.7 mb 0.00 in0.0 mm 0.00 in/hr0.0 mm/hr 0.00 in0.0 mm
05:50 AM 35.2°F1.8°C 33.6°F0.9°C - 4.0 mph N6.4 kmh N 6.0 mph9.7 kmh 30.21 in1023.0 mb 0.00 in0.0 mm 0.00 in/hr0.0 mm/hr 0.00 in0.0 mm
05:45 AM 35.2°F1.8°C 33.6°F0.9°C - 4.0 mph N6.4 kmh N 6.0 mph9.7 kmh 30.23 in1023.7 mb 0.00 in0.0 mm 0.00 in/hr0.0 mm/hr 0.00 in0.0 mm
05:40 AM 35.2°F1.8°C 33.3°F0.7°C - 4.0 mph N6.4 kmh N 6.0 mph9.7 kmh 30.23 in1023.7 mb 0.00 in0.0 mm 0.00 in/hr0.0 mm/hr 0.00 in0.0 mm
05:35 AM 35.2°F1.8°C 33.3°F0.7°C - 4.0 mph N6.4 kmh N 6.0 mph9.7 kmh 30.22 in1023.4 mb 0.00 in0.0 mm 0.00 in/hr0.0 mm/hr 0.00 in0.0 mm
05:30 AM 35.3°F1.8°C 33.4°F0.8°C - 5.0 mph N8.0 kmh N 8.0 mph12.9 kmh 30.20 in1022.7 mb 0.00 in0.0 mm 0.00 in/hr0.0 mm/hr 0.00 in0.0 mm
05:25 AM 35.4°F1.9°C 33.5°F0.8°C - 4.0 mph N6.4 kmh N 6.0 mph9.7 kmh 30.20 in1022.7 mb 0.00 in0.0 mm 0.00 in/hr0.0 mm/hr 0.00 in0.0 mm
05:20 AM 35.4°F1.9°C 33.5°F0.8°C - 4.0 mph N6.4 kmh N 6.0 mph9.7 kmh 30.20 in1022.7 mb 0.00 in0.0 mm 0.00 in/hr0.0 mm/hr 0.00 in0.0 mm
05:15 AM 35.4°F1.9°C 33.3°F0.7°C - 4.0 mph N6.4 kmh N 8.0 mph12.9 kmh 30.20 in1022.7 mb 0.00 in0.0 mm 0.00 in/hr0.0 mm/hr 0.00 in0.0 mm
05:10 AM 35.6°F2.0°C 33.3°F0.7°C - 5.0 mph NNE8.0 kmh NNE 6.0 mph9.7 kmh 30.20 in1022.7 mb 0.00 in0.0 mm 0.00 in/hr0.0 mm/hr 0.00 in0.0 mm
05:05 AM 35.6°F2.0°C 33.3°F0.7°C - 5.0 mph N8.0 kmh N 6.0 mph9.7 kmh 30.19 in1022.4 mb 0.00 in0.0 mm 0.00 in/hr0.0 mm/hr 0.00 in0.0 mm
05:00 AM 35.6°F2.0°C 33.4°F0.8°C - 5.0 mph N8.0 kmh N 7.0 mph11.3 kmh 30.17 in1021.7 mb 0.00 in0.0 mm 0.00 in/hr0.0 mm/hr 0.00 in0.0 mm
04:55 AM 35.7°F2.1°C 33.5°F0.8°C - 5.0 mph N8.0 kmh N 8.0 mph12.9 kmh 30.17 in1021.7 mb 0.00 in0.0 mm 0.00 in/hr0.0 mm/hr 0.00 in0.0 mm
04:50 AM 35.7°F2.1°C 33.5°F0.8°C - 4.0 mph N6.4 kmh N 6.0 mph9.7 kmh 30.17 in1021.7 mb 0.00 in0.0 mm 0.00 in/hr0.0 mm/hr 0.00 in0.0 mm
04:45 AM 35.8°F2.1°C 33.4°F0.8°C - 4.0 mph N6.4 kmh N 6.0 mph9.7 kmh 30.17 in1021.7 mb 0.00 in0.0 mm 0.00 in/hr0.0 mm/hr 0.00 in0.0 mm
04:40 AM 35.9°F2.2°C 33.4°F0.8°C - 4.0 mph N6.4 kmh N 5.0 mph8.0 kmh 30.17 in1021.7 mb 0.00 in0.0 mm 0.00 in/hr0.0 mm/hr 0.00 in0.0 mm
04:35 AM 36.0°F2.2°C 33.5°F0.8°C - 4.0 mph N6.4 kmh N 6.0 mph9.7 kmh 30.17 in1021.7 mb 0.00 in0.0 mm 0.00 in/hr0.0 mm/hr 0.00 in0.0 mm
04:30 AM 36.1°F2.3°C 33.6°F0.9°C - 4.0 mph N6.4 kmh N 6.0 mph9.7 kmh 30.20 in1022.7 mb 0.00 in0.0 mm 0.00 in/hr0.0 mm/hr 0.00 in0.0 mm
04:25 AM 36.1°F2.3°C 33.6°F0.9°C - 5.0 mph 8.0 kmh 5.0 mph8.0 kmh 30.20 in1022.7 mb 0.00 in0.0 mm 0.00 in/hr0.0 mm/hr 0.00 in0.0 mm
04:20 AM 36.1°F2.3°C 33.6°F0.9°C - 4.0 mph NNW6.4 kmh NNW 5.0 mph8.0 kmh 30.20 in1022.7 mb 0.00 in0.0 mm 0.00 in/hr0.0 mm/hr 0.00 in0.0 mm
04:15 AM 36.2°F2.3°C 33.6°F0.9°C - 5.0 mph N8.0 kmh N 6.0 mph9.7 kmh 30.20 in1022.7 mb 0.00 in0.0 mm 0.00 in/hr0.0 mm/hr 0.00 in0.0 mm
04:10 AM 36.3°F2.4°C 33.7°F0.9°C - 4.0 mph N6.4 kmh N 6.0 mph9.7 kmh 30.20 in1022.7 mb 0.00 in0.0 mm 0.00 in/hr0.0 mm/hr 0.00 in0.0 mm
04:05 AM 36.3°F2.4°C 33.7°F0.9°C - 3.0 mph N4.8 kmh N 6.0 mph9.7 kmh 30.20 in1022.7 mb 0.00 in0.0 mm 0.00 in/hr0.0 mm/hr 0.00 in0.0 mm
04:00 AM 36.3°F2.4°C 33.7°F0.9°C - 3.0 mph N4.8 kmh N 4.0 mph6.4 kmh 30.20 in1022.7 mb 0.00 in0.0 mm 0.00 in/hr0.0 mm/hr 0.00 in0.0 mm
03:55 AM 36.3°F2.4°C 33.7°F0.9°C - 4.0 mph N6.4 kmh N 6.0 mph9.7 kmh 30.20 in1022.7 mb 0.00 in0.0 mm 0.00 in/hr0.0 mm/hr 0.00 in0.0 mm
03:50 AM 36.3°F2.4°C 33.7°F0.9°C - 5.0 mph N8.0 kmh N 8.0 mph12.9 kmh 30.20 in1022.7 mb 0.00 in0.0 mm 0.00 in/hr0.0 mm/hr 0.00 in0.0 mm
03:45 AM 36.4°F2.4°C 33.9°F1.1°C - 3.0 mph N4.8 kmh N 5.0 mph8.0 kmh 30.20 in1022.7 mb 0.00 in0.0 mm 0.00 in/hr0.0 mm/hr 0.00 in0.0 mm
03:40 AM 36.3°F2.4°C 33.7°F0.9°C - 4.0 mph N6.4 kmh N 5.0 mph8.0 kmh 30.20 in1022.7 mb 0.00 in0.0 mm 0.00 in/hr0.0 mm/hr 0.00 in0.0 mm
03:35 AM 36.5°F2.5°C 33.9°F1.1°C - 4.0 mph N6.4 kmh N 6.0 mph9.7 kmh 30.20 in1022.7 mb 0.00 in0.0 mm 0.00 in/hr0.0 mm/hr 0.00 in0.0 mm
03:30 AM 36.5°F2.5°C 33.9°F1.1°C - 5.0 mph N8.0 kmh N 7.0 mph11.3 kmh 30.20 in1022.7 mb 0.00 in0.0 mm 0.00 in/hr0.0 mm/hr 0.00 in0.0 mm
03:25 AM 36.5°F2.5°C 33.9°F1.1°C - 4.0 mph N6.4 kmh N 5.0 mph8.0 kmh 30.20 in1022.7 mb 0.00 in0.0 mm 0.00 in/hr0.0 mm/hr 0.00 in0.0 mm
03:20 AM 36.5°F2.5°C 33.9°F1.1°C - 4.0 mph N6.4 kmh N 6.0 mph9.7 kmh 30.20 in1022.7 mb 0.00 in0.0 mm 0.00 in/hr0.0 mm/hr 0.00 in0.0 mm
03:15 AM 36.5°F2.5°C 33.9°F1.1°C - 4.0 mph N6.4 kmh N 6.0 mph9.7 kmh 30.20 in1022.7 mb 0.00 in0.0 mm 0.00 in/hr0.0 mm/hr 0.00 in0.0 mm
03:10 AM 36.6°F2.6°C 34.1°F1.2°C - 3.0 mph NNW4.8 kmh NNW 5.0 mph8.0 kmh 30.20 in1022.7 mb 0.00 in0.0 mm 0.00 in/hr0.0 mm/hr 0.00 in0.0 mm
03:05 AM 36.5°F2.5°C 34.0°F1.1°C - 3.0 mph NNW4.8 kmh NNW 5.0 mph8.0 kmh 30.20 in1022.7 mb 0.00 in0.0 mm 0.00 in/hr0.0 mm/hr 0.00 in0.0 mm
03:00 AM 36.5°F2.5°C 33.6°F0.9°C - 3.0 mph N4.8 kmh N 4.0 mph6.4 kmh 30.20 in1022.7 mb 0.00 in0.0 mm 0.00 in/hr0.0 mm/hr 0.00 in0.0 mm
02:55 AM 36.6°F2.6°C 33.7°F0.9°C - 3.0 mph N4.8 kmh N 4.0 mph6.4 kmh 30.20 in1022.7 mb 0.00 in0.0 mm 0.00 in/hr0.0 mm/hr 0.00 in0.0 mm
02:50 AM 36.5°F2.5°C 33.6°F0.9°C - 3.0 mph NNW4.8 kmh NNW 4.0 mph6.4 kmh 30.20 in1022.7 mb 0.00 in0.0 mm 0.00 in/hr0.0 mm/hr 0.00 in0.0 mm
02:45 AM 36.5°F2.5°C 33.6°F0.9°C - 4.0 mph NNW6.4 kmh NNW 6.0 mph9.7 kmh 30.20 in1022.7 mb 0.00 in0.0 mm 0.00 in/hr0.0 mm/hr 0.00 in0.0 mm
02:40 AM 36.6°F2.6°C 33.8°F1.0°C - 4.0 mph NNW6.4 kmh NNW 6.0 mph9.7 kmh 30.20 in1022.7 mb 0.00 in0.0 mm 0.00 in/hr0.0 mm/hr 0.00 in0.0 mm
02:35 AM 36.6°F2.6°C 33.8°F1.0°C - 3.0 mph N4.8 kmh N 4.0 mph6.4 kmh 30.20 in1022.7 mb 0.00 in0.0 mm 0.00 in/hr0.0 mm/hr 0.00 in0.0 mm
02:30 AM 36.6°F2.6°C 33.6°F0.9°C - 3.0 mph N4.8 kmh N 5.0 mph8.0 kmh 30.20 in1022.7 mb 0.00 in0.0 mm 0.00 in/hr0.0 mm/hr 0.00 in0.0 mm
02:25 AM 36.6°F2.6°C 33.5°F0.8°C - 4.0 mph N6.4 kmh N 6.0 mph9.7 kmh 30.20 in1022.7 mb 0.00 in0.0 mm 0.00 in/hr0.0 mm/hr 0.00 in0.0 mm
02:20 AM 36.6°F2.6°C 33.5°F0.8°C - 4.0 mph N6.4 kmh N 6.0 mph9.7 kmh 30.20 in1022.7 mb 0.00 in0.0 mm 0.00 in/hr0.0 mm/hr 0.00 in0.0 mm
02:15 AM 36.6°F2.6°C 33.5°F0.8°C - 4.0 mph N6.4 kmh N 6.0 mph9.7 kmh 30.20 in1022.7 mb 0.00 in0.0 mm 0.00 in/hr0.0 mm/hr 0.00 in0.0 mm
02:10 AM 36.7°F2.6°C 33.5°F0.8°C - 3.0 mph N4.8 kmh N 4.0 mph6.4 kmh 30.20 in1022.7 mb 0.00 in0.0 mm 0.00 in/hr0.0 mm/hr 0.00 in0.0 mm
02:05 AM 36.8°F2.7°C 33.6°F0.9°C - 3.0 mph N4.8 kmh N 4.0 mph6.4 kmh 30.20 in1022.7 mb 0.00 in0.0 mm 0.00 in/hr0.0 mm/hr 0.00 in0.0 mm
02:00 AM 36.8°F2.7°C 33.6°F0.9°C - 4.0 mph N6.4 kmh N 6.0 mph9.7 kmh 30.20 in1022.7 mb 0.00 in0.0 mm 0.00 in/hr0.0 mm/hr 0.00 in0.0 mm
01:55 AM 36.8°F2.7°C 33.6°F0.9°C - 4.0 mph N6.4 kmh N 6.0 mph9.7 kmh 30.20 in1022.7 mb 0.00 in0.0 mm 0.00 in/hr0.0 mm/hr 0.00 in0.0 mm
01:50 AM 36.8°F2.7°C 33.6°F0.9°C - 3.0 mph N4.8 kmh N 6.0 mph9.7 kmh 30.20 in1022.7 mb 0.00 in0.0 mm 0.00 in/hr0.0 mm/hr 0.00 in0.0 mm
01:45 AM 36.8°F2.7°C 33.3°F0.7°C - 4.0 mph N6.4 kmh N 4.0 mph6.4 kmh 30.20 in1022.7 mb 0.00 in0.0 mm 0.00 in/hr0.0 mm/hr 0.00 in0.0 mm
01:40 AM 36.8°F2.7°C 33.3°F0.7°C - 4.0 mph N6.4 kmh N 6.0 mph9.7 kmh 30.20 in1022.7 mb 0.00 in0.0 mm 0.00 in/hr0.0 mm/hr 0.00 in0.0 mm
01:35 AM 36.8°F2.7°C 33.3°F0.7°C - 4.0 mph N6.4 kmh N 7.0 mph11.3 kmh 30.20 in1022.7 mb 0.00 in0.0 mm 0.00 in/hr0.0 mm/hr 0.00 in0.0 mm
01:30 AM 36.8°F2.7°C 33.3°F0.7°C - 4.0 mph N6.4 kmh N 8.0 mph12.9 kmh 30.20 in1022.7 mb 0.00 in0.0 mm 0.00 in/hr0.0 mm/hr 0.00 in0.0 mm
01:25 AM 37.0°F2.8°C 33.5°F0.8°C - 5.0 mph N8.0 kmh N 7.0 mph11.3 kmh 30.20 in1022.7 mb 0.00 in0.0 mm 0.00 in/hr0.0 mm/hr 0.00 in0.0 mm
01:20 AM 37.0°F2.8°C 33.5°F0.8°C - 4.0 mph N6.4 kmh N 6.0 mph9.7 kmh 30.20 in1022.7 mb 0.00 in0.0 mm 0.00 in/hr0.0 mm/hr 0.00 in0.0 mm
01:15 AM 37.1°F2.8°C 33.6°F0.9°C - 4.0 mph N6.4 kmh N 6.0 mph9.7 kmh 30.20 in1022.7 mb 0.00 in0.0 mm 0.00 in/hr0.0 mm/hr 0.00 in0.0 mm
01:10 AM 37.2°F2.9°C 33.7°F0.9°C - 4.0 mph N6.4 kmh N 7.0 mph11.3 kmh 30.20 in1022.7 mb 0.00 in0.0 mm 0.00 in/hr0.0 mm/hr 0.00 in0.0 mm
01:05 AM 37.2°F2.9°C 33.7°F0.9°C - 5.0 mph NNE8.0 kmh NNE 6.0 mph9.7 kmh 30.20 in1022.7 mb 0.00 in0.0 mm 0.00 in/hr0.0 mm/hr 0.00 in0.0 mm
01:00 AM 37.2°F2.9°C 33.7°F0.9°C - 5.0 mph N8.0 kmh N 6.0 mph9.7 kmh 30.20 in1022.7 mb 0.00 in0.0 mm 0.00 in/hr0.0 mm/hr 0.00 in0.0 mm
12:55 AM 37.2°F2.9°C 33.7°F0.9°C - 5.0 mph N8.0 kmh N 6.0 mph9.7 kmh 30.20 in1022.7 mb 0.00 in0.0 mm 0.00 in/hr0.0 mm/hr 0.00 in0.0 mm
12:50 AM 37.3°F2.9°C 33.8°F1.0°C - 5.0 mph N8.0 kmh N 5.0 mph8.0 kmh 30.20 in1022.7 mb 0.00 in0.0 mm 0.00 in/hr0.0 mm/hr 0.00 in0.0 mm
12:45 AM 37.4°F3.0°C 33.8°F1.0°C - 3.0 mph N4.8 kmh N 6.0 mph9.7 kmh 30.20 in1022.7 mb 0.00 in0.0 mm 0.00 in/hr0.0 mm/hr 0.00 in0.0 mm
12:40 AM 37.4°F3.0°C 33.8°F1.0°C - 4.0 mph N6.4 kmh N 6.0 mph9.7 kmh 30.20 in1022.7 mb 0.00 in0.0 mm 0.00 in/hr0.0 mm/hr 0.00 in0.0 mm
12:35 AM 37.4°F3.0°C 33.8°F1.0°C - 4.0 mph N6.4 kmh N 6.0 mph9.7 kmh 30.20 in1022.7 mb 0.00 in0.0 mm 0.00 in/hr0.0 mm/hr 0.00 in0.0 mm
12:30 AM 37.4°F3.0°C 33.8°F1.0°C - 4.0 mph N6.4 kmh N 6.0 mph9.7 kmh 30.23 in1023.7 mb 0.00 in0.0 mm 0.00 in/hr0.0 mm/hr 0.00 in0.0 mm
12:25 AM 37.5°F3.1°C 34.0°F1.1°C - 3.0 mph N4.8 kmh N 6.0 mph9.7 kmh 30.23 in1023.7 mb 0.00 in0.0 mm 0.00 in/hr0.0 mm/hr 0.00 in0.0 mm
12:20 AM 37.5°F3.1°C 34.0°F1.1°C - 3.0 mph N4.8 kmh N 5.0 mph8.0 kmh 30.23 in1023.7 mb 0.00 in0.0 mm 0.00 in/hr0.0 mm/hr 0.00 in0.0 mm
12:15 AM 37.5°F3.1°C 34.0°F1.1°C - 3.0 mph N4.8 kmh N 4.0 mph6.4 kmh 30.23 in1023.7 mb 0.00 in0.0 mm 0.00 in/hr0.0 mm/hr 0.00 in0.0 mm
12:10 AM 37.5°F3.1°C 34.0°F1.1°C - 3.0 mph NNW4.8 kmh NNW 4.0 mph6.4 kmh 30.23 in1023.7 mb 0.00 in0.0 mm 0.00 in/hr0.0 mm/hr 0.00 in0.0 mm
12:05 AM 37.5°F3.1°C 34.0°F1.1°C - 3.0 mph NNW4.8 kmh NNW 4.0 mph6.4 kmh 30.23 in1023.7 mb 0.00 in0.0 mm 0.00 in/hr0.0 mm/hr 0.00 in0.0 mm
12:00 AM 37.5°F3.1°C 34.0°F1.1°C - 3.0 mph N4.8 kmh N 4.0 mph6.4 kmh 30.23 in1023.7 mb 0.00 in0.0 mm 0.00 in/hr0.0 mm/hr 0.00 in0.0 mm